Time;durP1;ratioP1;P1;durP2;ratioP2;P2;SDS_P1;SDS_P2;PMS_P1;PMS_P2;Temp;Humidity;BMP_temperature;BMP_pressure;BME280_temperature;BME280_humidity;BME280_pressure;Samples;Min_cycle;Max_cycle;Signal;HPM_P1;HPM_P2
2023/12/11 00:01:33;;;;;;;2.45;1.95;;;;;;;9.26;100.00;97497.50;4112074;28;20278;-45
2023/12/11 00:03:36;;;;;;;0.80;0.75;;;;;;;9.19;100.00;97513.31;4091988;28;20216;-45
2023/12/11 00:05:39;;;;;;;1.30;1.10;;;;;;;9.26;100.00;97508.44;4089156;28;20218;-45
2023/12/11 00:07:40;;;;;;;1.33;1.25;;;;;;;9.30;100.00;97509.53;4095309;28;20226;-46
2023/12/11 00:09:42;;;;;;;1.13;1.00;;;;;;;9.25;100.00;97512.25;4077538;29;20714;-46
2023/12/11 00:11:52;;;;;;;2.15;1.75;;;;;;;9.24;100.00;97514.16;4093539;28;20214;-45
2023/12/11 00:13:54;;;;;;;3.13;2.42;;;;;;;9.32;100.00;97518.28;4097446;28;20219;-45
2023/12/11 00:15:55;;;;;;;1.63;1.52;;;;;;;9.36;100.00;97517.47;4108282;28;20728;-45
2023/12/11 00:17:57;;;;;;;1.30;0.98;;;;;;;9.36;100.00;97513.94;4092951;28;20306;-45
2023/12/11 00:19:59;;;;;;;0.77;0.77;;;;;;;9.42;100.00;97518.34;4096083;28;20235;-44
2023/12/11 00:22:01;;;;;;;1.13;1.08;;;;;;;9.39;100.00;97518.84;4115163;28;20214;-45
2023/12/11 00:24:03;;;;;;;0.60;0.60;;;;;;;9.40;100.00;97526.78;4099453;28;20212;-44
2023/12/11 00:26:05;;;;;;;1.27;1.27;;;;;;;9.40;100.00;97515.88;4097917;28;20253;-44
2023/12/11 00:28:07;;;;;;;1.10;1.10;;;;;;;9.40;100.00;97525.94;4098193;28;20206;-45
2023/12/11 00:30:09;;;;;;;0.95;0.95;;;;;;;9.42;100.00;97513.69;4093756;28;20215;-45
2023/12/11 00:32:13;;;;;;;5.00;1.08;;;;;;;9.48;100.00;97522.72;4113467;28;20210;-46
2023/12/11 00:34:15;;;;;;;0.50;0.50;;;;;;;9.43;100.00;97519.97;4103903;28;20266;-45
2023/12/11 00:36:17;;;;;;;0.73;0.73;;;;;;;9.50;100.00;97515.09;4116001;28;20549;-45
2023/12/11 00:38:18;;;;;;;0.98;0.85;;;;;;;9.48;100.00;97522.72;4095931;28;20714;-45
2023/12/11 00:40:20;;;;;;;0.60;0.60;;;;;;;9.49;100.00;97524.38;4095108;28;20282;-45
2023/12/11 00:42:22;;;;;;;0.52;0.52;;;;;;;9.49;100.00;97521.63;4099860;28;20222;-46
2023/12/11 00:44:24;;;;;;;0.80;0.80;;;;;;;9.50;100.00;97515.91;4094384;28;20263;-45
2023/12/11 00:46:27;;;;;;;0.80;0.80;;;;;;;9.51;100.00;97511.25;4093365;28;20231;-45
2023/12/11 00:48:28;;;;;;;0.50;0.50;;;;;;;9.51;100.00;97517.56;4106251;28;20269;-44
2023/12/11 00:50:30;;;;;;;0.77;0.75;;;;;;;9.52;100.00;97512.91;4094082;28;20266;-44
2023/12/11 00:52:32;;;;;;;0.95;0.70;;;;;;;9.54;100.00;97516.22;4094659;28;20566;-46
2023/12/11 00:54:34;;;;;;;0.70;0.70;;;;;;;9.52;100.00;97504.72;4096910;28;20242;-45
2023/12/11 00:56:35;;;;;;;0.63;0.63;;;;;;;9.52;100.00;97502.81;4100093;28;20236;-45
2023/12/11 00:58:37;;;;;;;0.60;0.60;;;;;;;9.49;100.00;97502.53;4109219;28;20234;-45
2023/12/11 01:00:42;;;;;;;0.70;0.70;;;;;;;9.44;100.00;97500.59;4075267;29;20647;-45
2023/12/11 01:02:43;;;;;;;0.50;0.50;;;;;;;9.39;100.00;97502.47;4097005;28;20235;-45
2023/12/11 01:04:51;;;;;;;0.70;0.70;;;;;;;9.37;100.00;97493.75;4095613;28;20809;-47
2023/12/11 01:06:53;;;;;;;0.55;0.55;;;;;;;9.40;100.00;97494.03;4093098;28;20231;-48
2023/12/11 01:08:55;;;;;;;1.70;1.65;;;;;;;9.37;100.00;97491.00;4090264;28;20225;-45
2023/12/11 01:10:58;;;;;;;0.60;0.60;;;;;;;9.33;100.00;97492.63;4096205;28;20215;-45
2023/12/11 01:12:59;;;;;;;3.63;1.38;;;;;;;9.38;100.00;97495.38;4093296;28;20215;-46
2023/12/11 01:15:07;;;;;;;1.23;1.23;;;;;;;9.40;100.00;97495.91;4091816;28;20915;-44
2023/12/11 01:17:09;;;;;;;1.02;0.50;;;;;;;9.44;100.00;97499.78;4093481;28;20759;-45
2023/12/11 01:19:30;;;;;;;1.80;1.70;;;;;;;9.40;100.00;97495.91;4107599;28;20680;-45
2023/12/11 01:21:32;;;;;;;0.60;0.60;;;;;;;9.37;100.00;97504.66;4092947;28;20807;-45
2023/12/11 01:23:34;;;;;;;2.92;1.10;;;;;;;9.36;100.00;97508.47;4092857;28;20216;-45
2023/12/11 01:25:36;;;;;;;0.50;0.50;;;;;;;9.46;100.00;97508.50;4094858;28;20229;-45
2023/12/11 01:27:38;;;;;;;1.27;0.82;;;;;;;9.50;100.00;97510.47;4091582;28;20215;-46
2023/12/11 01:29:39;;;;;;;0.70;0.70;;;;;;;9.55;100.00;97504.19;4108660;28;20281;-45
2023/12/11 01:31:41;;;;;;;0.80;0.80;;;;;;;9.55;100.00;97498.72;4107709;28;20218;-46
2023/12/11 01:33:43;;;;;;;0.80;0.80;;;;;;;9.52;100.00;97497.34;4078906;29;20768;-46
2023/12/11 01:35:45;;;;;;;0.65;0.60;;;;;;;9.55;100.00;97487.81;4089934;28;20223;-45
2023/12/11 01:37:47;;;;;;;0.70;0.70;;;;;;;9.63;100.00;97495.47;4089146;28;20215;-44
2023/12/11 01:39:48;;;;;;;0.90;0.90;;;;;;;9.64;100.00;97497.09;4092461;28;20585;-45
2023/12/11 01:41:50;;;;;;;0.80;0.80;;;;;;;9.68;100.00;97495.50;4087528;28;20215;-44
2023/12/11 01:43:53;;;;;;;3.72;0.90;;;;;;;9.61;100.00;97493.00;4095059;28;20298;-45
2023/12/11 01:46:08;;;;;;;0.82;0.80;;;;;;;9.63;100.00;97498.19;4094730;28;20649;-45
2023/12/11 01:48:11;;;;;;;0.70;0.70;;;;;;;9.65;100.00;97498.75;4090574;28;20207;-45
2023/12/11 01:50:14;;;;;;;0.63;0.63;;;;;;;9.57;100.00;97500.09;4095115;28;20217;-45
2023/12/11 01:52:16;;;;;;;0.65;0.65;;;;;;;9.46;100.00;97497.59;4078106;29;20709;-46
2023/12/11 01:54:19;;;;;;;1.38;0.77;;;;;;;9.43;100.00;97496.22;4111168;28;20206;-45
2023/12/11 01:56:21;;;;;;;5.40;1.00;;;;;;;9.42;100.00;97501.97;4093391;28;20259;-46
2023/12/11 01:58:24;;;;;;;7.25;1.45;;;;;;;9.43;100.00;97500.88;4091644;28;20258;-45
2023/12/11 02:00:26;;;;;;;0.50;0.50;;;;;;;9.41;100.00;97494.84;4104096;28;20217;-45
2023/12/11 02:02:32;;;;;;;0.70;0.70;;;;;;;9.34;100.00;97500.56;4091314;28;20307;-45
2023/12/11 02:04:33;;;;;;;0.60;0.60;;;;;;;9.29;100.00;97502.44;4076547;29;20235;-45
2023/12/11 02:06:35;;;;;;;1.88;0.52;;;;;;;9.28;100.00;97506.28;4089074;28;20227;-45
2023/12/11 02:08:37;;;;;;;0.68;0.68;;;;;;;9.28;100.00;97501.63;4107801;28;20214;-46
2023/12/11 02:10:39;;;;;;;0.73;0.73;;;;;;;9.33;100.00;97503.53;4089370;28;20207;-45
2023/12/11 02:12:41;;;;;;;11.23;0.98;;;;;;;9.36;100.00;97508.47;4090590;28;20207;-44
2023/12/11 02:14:43;;;;;;;0.50;0.50;;;;;;;9.36;100.00;97503.03;4108641;28;20241;-45
2023/12/11 02:16:48;;;;;;;1.33;1.10;;;;;;;9.35;100.00;97512.31;4094506;28;20243;-45
2023/12/11 02:18:50;;;;;;;0.60;0.60;;;;;;;9.34;100.00;97513.41;4099025;28;20216;-45
2023/12/11 02:20:52;;;;;;;1.20;1.13;;;;;;;9.31;100.00;97516.66;4101883;28;20294;-46
2023/12/11 02:22:55;;;;;;;0.63;0.63;;;;;;;9.26;100.00;97522.06;4080484;29;20279;-45
2023/12/11 02:25:00;;;;;;;1.95;1.33;;;;;;;9.39;100.00;97529.78;4098805;28;20670;-45
2023/12/11 02:27:03;;;;;;;0.57;0.57;;;;;;;9.47;100.00;97527.38;4091701;28;20239;-45
2023/12/11 02:29:04;;;;;;;0.70;0.70;;;;;;;9.49;100.00;97518.91;4088327;28;20235;-45
2023/12/11 02:31:06;;;;;;;1.33;1.02;;;;;;;9.50;100.00;97515.09;4093123;28;20207;-46
2023/12/11 02:33:08;;;;;;;1.00;1.00;;;;;;;9.53;100.00;97514.53;4107940;28;20294;-47
2023/12/11 02:35:10;;;;;;;1.45;0.98;;;;;;;9.54;100.00;97516.22;4093289;28;20323;-45
2023/12/11 02:37:12;;;;;;;1.00;0.77;;;;;;;9.54;100.00;97511.53;4091965;28;20236;-46
2023/12/11 02:39:13;;;;;;;0.63;0.63;;;;;;;9.52;100.00;97513.72;4109363;28;20218;-45
2023/12/11 02:41:15;;;;;;;0.73;0.73;;;;;;;9.53;100.00;97520.00;4077411;29;20268;-45
2023/12/11 02:43:17;;;;;;;0.75;0.70;;;;;;;9.51;100.00;97517.56;4108878;28;20293;-45
2023/12/11 02:45:19;;;;;;;3.20;0.68;;;;;;;9.53;100.00;97514.53;4108765;28;20298;-45
2023/12/11 02:47:28;;;;;;;0.75;0.75;;;;;;;9.56;100.00;97514.03;4093684;28;20226;-45
2023/12/11 02:49:30;;;;;;;0.80;0.80;;;;;;;9.49;100.00;97518.91;4092237;28;20219;-45
2023/12/11 02:51:32;;;;;;;0.85;0.85;;;;;;;9.52;100.00;97518.38;4094243;28;20242;-45
2023/12/11 02:53:33;;;;;;;1.65;0.80;;;;;;;9.59;100.00;97514.31;4109267;28;20207;-45
2023/12/11 02:55:35;;;;;;;2.88;1.05;;;;;;;9.61;100.00;97516.78;4094796;28;20283;-45
2023/12/11 02:57:37;;;;;;;0.57;0.57;;;;;;;9.59;100.00;97508.84;4076081;29;20300;-46
2023/12/11 02:59:39;;;;;;;1.00;0.90;;;;;;;9.55;100.00;97507.72;4091290;28;20215;-44
2023/12/11 03:01:40;;;;;;;1.23;1.13;;;;;;;9.55;100.00;97512.38;4093451;28;20396;-45
2023/12/11 03:03:48;;;;;;;1.55;0.80;;;;;;;9.56;100.00;97503.09;4093708;28;20246;-44
2023/12/11 03:05:50;;;;;;;4.15;0.70;;;;;;;9.61;100.00;97512.13;4096552;28;20204;-46
2023/12/11 03:07:52;;;;;;;0.40;0.40;;;;;;;9.57;100.00;97499.28;4108788;28;20576;-45
2023/12/11 03:09:54;;;;;;;0.50;0.50;;;;;;;9.61;100.00;97489.47;4097354;28;20262;-45
2023/12/11 03:11:55;;;;;;;1.55;1.45;;;;;;;9.58;100.00;97484.53;4094551;28;20218;-44
2023/12/11 03:13:57;;;;;;;4.43;0.60;;;;;;;9.64;100.00;97488.91;4095824;28;20219;-45
2023/12/11 03:15:59;;;;;;;0.68;0.57;;;;;;;9.61;100.00;97492.19;4096166;28;20361;-45
2023/12/11 03:18:01;;;;;;;0.80;0.80;;;;;;;9.62;100.00;97480.19;4090224;28;20212;-45
2023/12/11 03:20:05;;;;;;;1.10;0.80;;;;;;;9.60;100.00;97476.88;4091516;28;20223;-46
2023/12/11 03:22:07;;;;;;;4.07;1.00;;;;;;;9.53;100.00;97470.84;4110829;28;20213;-46
2023/12/11 03:24:09;;;;;;;1.27;0.70;;;;;;;9.58;100.00;97466.25;4094152;28;20755;-46
2023/12/11 03:26:14;;;;;;;0.52;0.52;;;;;;;9.59;100.00;97464.31;4079248;28;20270;-45
2023/12/11 03:28:15;;;;;;;0.70;0.70;;;;;;;9.66;100.00;97459.41;4096292;28;20219;-44
2023/12/11 03:30:17;;;;;;;0.60;0.60;;;;;;;9.67;100.00;97461.09;4096129;28;20235;-46
2023/12/11 03:32:19;;;;;;;5.18;1.25;;;;;;;9.72;100.00;97452.88;4109686;28;20211;-45
2023/12/11 03:34:21;;;;;;;0.75;0.68;;;;;;;9.64;100.00;97454.25;4096872;28;20215;-45
2023/12/11 03:36:22;;;;;;;0.70;0.70;;;;;;;9.67;100.00;97452.88;4108988;28;20230;-45
2023/12/11 03:38:24;;;;;;;0.82;0.82;;;;;;;9.56;100.00;97453.94;4098597;28;20622;-45
2023/12/11 03:40:26;;;;;;;1.13;0.82;;;;;;;9.61;100.00;97443.03;4109204;28;20211;-46
2023/12/11 03:42:28;;;;;;;5.68;0.75;;;;;;;9.67;100.00;97450.16;4093094;28;20203;-46
2023/12/11 03:44:29;;;;;;;0.82;0.82;;;;;;;9.71;100.00;97446.59;4088680;28;20211;-45
2023/12/11 03:46:31;;;;;;;1.00;1.00;;;;;;;9.71;100.00;97451.22;4090173;28;20955;-45
2023/12/11 03:48:33;;;;;;;1.10;0.70;;;;;;;9.70;100.00;97446.88;4106850;28;20270;-45
2023/12/11 03:50:34;;;;;;;0.80;0.80;;;;;;;9.71;100.00;97451.22;4108399;28;20680;-45
2023/12/11 03:52:36;;;;;;;4.72;0.60;;;;;;;9.70;100.00;97464.09;4088535;29;20222;-46
2023/12/11 03:54:38;;;;;;;1.55;0.98;;;;;;;9.71;100.00;97470.34;4098548;28;20690;-46
2023/12/11 03:56:40;;;;;;;1.48;1.25;;;;;;;9.65;100.00;97474.16;4095954;28;20231;-45
2023/12/11 03:58:42;;;;;;;1.15;1.00;;;;;;;9.71;100.00;97473.09;4075910;29;20227;-44
2023/12/11 04:00:44;;;;;;;0.88;0.88;;;;;;;9.64;100.00;97472.53;4099682;28;20210;-46
2023/12/11 04:02:46;;;;;;;0.95;0.95;;;;;;;9.71;100.00;97479.38;4112904;28;20215;-45
2023/12/11 04:04:48;;;;;;;0.90;0.90;;;;;;;9.77;100.00;97466.53;4097432;28;20218;-45
2023/12/11 04:06:50;;;;;;;0.77;0.77;;;;;;;9.78;100.00;97465.44;4105141;28;20239;-45
2023/12/11 04:08:52;;;;;;;1.67;1.58;;;;;;;9.81;100.00;97473.13;4109382;28;20677;-45
2023/12/11 04:10:53;;;;;;;0.70;0.70;;;;;;;9.84;100.00;97480.75;4109674;28;20214;-45
2023/12/11 04:12:55;;;;;;;0.80;0.80;;;;;;;9.90;100.00;97482.41;4092467;28;20566;-45
2023/12/11 04:14:57;;;;;;;3.60;0.85;;;;;;;9.84;100.00;97478.03;4093484;28;20343;-45
2023/12/11 04:16:59;;;;;;;0.80;0.80;;;;;;;9.89;100.00;97480.78;4091269;28;20230;-45
2023/12/11 04:19:00;;;;;;;0.45;0.45;;;;;;;9.87;100.00;97493.91;4097145;28;20266;-45
2023/12/11 04:21:02;;;;;;;0.57;0.52;;;;;;;9.95;100.00;97491.44;4116893;28;20229;-45
2023/12/11 04:23:04;;;;;;;0.80;0.80;;;;;;;9.93;100.00;97481.84;4116693;28;20219;-45
2023/12/11 04:25:06;;;;;;;1.30;1.00;;;;;;;9.94;100.00;97475.34;4102213;28;20230;-45
2023/12/11 04:27:08;;;;;;;0.80;0.80;;;;;;;9.99;100.00;97473.41;4098014;28;20649;-45
2023/12/11 04:29:10;;;;;;;0.95;0.90;;;;;;;9.94;100.00;97472.59;4096927;28;20361;-46
2023/12/11 04:31:11;;;;;;;0.57;0.57;;;;;;;10.00;100.00;97474.22;4094308;28;20219;-47
2023/12/11 04:33:13;;;;;;;0.73;0.73;;;;;;;10.01;100.00;97475.88;4094336;28;20211;-45
2023/12/11 04:35:15;;;;;;;1.00;1.00;;;;;;;10.14;100.00;97475.38;4088730;28;20680;-44
2023/12/11 04:37:20;;;;;;;0.60;0.60;;;;;;;10.12;100.00;97475.66;4092761;28;20314;-45
2023/12/11 04:39:22;;;;;;;0.60;0.60;;;;;;;10.11;100.00;97464.97;4091222;28;20282;-45
2023/12/11 04:41:23;;;;;;;3.83;0.70;;;;;;;10.13;100.00;97460.88;4109339;28;20254;-45
2023/12/11 04:43:25;;;;;;;1.20;1.20;;;;;;;10.17;100.00;97461.16;4090816;28;20195;-44
2023/12/11 04:45:31;;;;;;;0.80;0.80;;;;;;;10.11;100.00;97456.78;4093676;28;20398;-45
2023/12/11 04:47:33;;;;;;;0.80;0.73;;;;;;;10.19;100.00;97464.44;4089360;28;20765;-45
2023/12/11 04:49:34;;;;;;;0.70;0.70;;;;;;;10.18;100.00;97458.16;4078252;29;20208;-45
2023/12/11 04:51:36;;;;;;;0.77;0.77;;;;;;;10.19;100.00;97454.31;4105661;28;20653;-45
2023/12/11 04:53:38;;;;;;;0.90;0.90;;;;;;;10.17;100.00;97456.53;4077003;29;20224;-45
2023/12/11 04:55:40;;;;;;;0.73;0.70;;;;;;;10.16;100.00;97459.53;4092614;28;20223;-45
2023/12/11 04:57:42;;;;;;;1.75;0.77;;;;;;;10.16;100.00;97446.66;4106563;28;20582;-45
2023/12/11 04:59:44;;;;;;;0.80;0.80;;;;;;;10.14;100.00;97456.25;4093399;28;20714;-45
2023/12/11 05:01:45;;;;;;;0.90;0.90;;;;;;;10.11;100.00;97454.03;4093784;28;20211;-45
2023/12/11 05:03:47;;;;;;;0.70;0.70;;;;;;;10.26;100.00;97437.63;4106445;28;20211;-46
2023/12/11 05:05:49;;;;;;;0.60;0.60;;;;;;;10.26;100.00;97443.09;4093234;28;20211;-44
2023/12/11 05:07:51;;;;;;;0.60;0.60;;;;;;;10.30;100.00;97428.63;4115055;28;20214;-45
2023/12/11 05:09:52;;;;;;;1.08;0.88;;;;;;;10.29;100.00;97428.91;4090980;28;20285;-47
2023/12/11 05:11:54;;;;;;;0.50;0.50;;;;;;;10.24;100.00;97431.63;4087733;28;20222;-46
2023/12/11 05:13:56;;;;;;;0.60;0.60;;;;;;;10.25;100.00;97414.13;4091409;28;20310;-46
2023/12/11 05:15:58;;;;;;;2.60;1.25;;;;;;;10.24;100.00;97401.56;4104457;28;20598;-46
2023/12/11 05:18:00;;;;;;;0.60;0.60;;;;;;;10.24;100.00;97412.50;4079779;28;20251;-45
2023/12/11 05:20:02;;;;;;;0.88;0.88;;;;;;;10.29;100.00;97409.75;4087899;28;20233;-45
2023/12/11 05:22:04;;;;;;;0.50;0.50;;;;;;;10.31;100.00;97413.03;4086421;28;20215;-45
2023/12/11 05:24:06;;;;;;;0.75;0.75;;;;;;;10.27;100.00;97422.91;4103240;28;20297;-45
2023/12/11 05:26:08;;;;;;;0.60;0.60;;;;;;;10.28;100.00;97427.25;4103695;28;20230;-45
2023/12/11 05:28:10;;;;;;;0.77;0.77;;;;;;;10.31;100.00;97423.97;4103124;28;20222;-45
2023/12/11 05:30:12;;;;;;;3.65;1.40;;;;;;;10.25;100.00;97428.63;4085595;28;20892;-45
2023/12/11 05:32:14;;;;;;;0.65;0.65;;;;;;;10.24;100.00;97418.78;4106218;28;20210;-46
2023/12/11 05:34:16;;;;;;;3.60;0.95;;;;;;;10.30;100.00;97428.63;4091361;28;20215;-44
2023/12/11 05:36:18;;;;;;;0.57;0.57;;;;;;;10.28;100.00;97427.25;4088278;28;20231;-45
2023/12/11 05:38:20;;;;;;;0.98;0.98;;;;;;;10.26;100.00;97422.06;4102452;28;20226;-45
2023/12/11 05:40:22;;;;;;;0.68;0.68;;;;;;;10.26;100.00;97422.06;4087074;28;20203;-45
2023/12/11 05:42:24;;;;;;;4.47;1.25;;;;;;;10.26;100.00;97432.16;4087774;28;20215;-45
2023/12/11 05:44:26;;;;;;;0.60;0.52;;;;;;;10.23;100.00;97438.19;4106962;28;20743;-46
2023/12/11 05:46:28;;;;;;;1.17;0.93;;;;;;;10.35;100.00;97442.28;4103660;28;20811;-45
2023/12/11 05:48:30;;;;;;;0.65;0.65;;;;;;;10.37;100.00;97451.03;4085571;28;20234;-46
2023/12/11 05:50:32;;;;;;;8.68;1.05;;;;;;;10.34;100.00;97450.78;4090959;28;20221;-45
2023/12/11 05:52:35;;;;;;;0.90;0.90;;;;;;;10.32;100.00;97445.56;4092215;28;20472;-45
2023/12/11 05:54:37;;;;;;;0.40;0.40;;;;;;;10.33;100.00;97435.44;4087736;28;20211;-45
2023/12/11 05:56:39;;;;;;;0.45;0.45;;;;;;;10.35;100.00;97438.75;4105697;28;20230;-46
2023/12/11 05:58:40;;;;;;;0.65;0.65;;;;;;;10.28;100.00;97425.34;4104152;28;20652;-45
2023/12/11 06:00:42;;;;;;;2.92;0.75;;;;;;;10.27;100.00;97428.38;4087348;28;20737;-45
2023/12/11 06:02:44;;;;;;;1.73;0.60;;;;;;;10.23;100.00;97416.31;4107879;28;20607;-46
2023/12/11 06:04:46;;;;;;;1.13;1.13;;;;;;;10.20;100.00;97414.13;4078792;29;20235;-45
2023/12/11 06:06:47;;;;;;;0.70;0.70;;;;;;;10.32;100.00;97410.03;4108443;28;20234;-45
2023/12/11 06:08:50;;;;;;;1.02;0.93;;;;;;;10.36;100.00;97421.22;4091050;28;20238;-45
2023/12/11 06:10:52;;;;;;;0.60;0.60;;;;;;;10.33;100.00;97428.06;4083835;28;20812;-45
2023/12/11 06:12:53;;;;;;;1.48;0.90;;;;;;;10.32;100.00;97428.34;4088515;28;20215;-45
2023/12/11 06:14:55;;;;;;;0.57;0.57;;;;;;;10.30;100.00;97427.81;4103074;28;20705;-47
2023/12/11 06:16:57;;;;;;;11.55;0.82;;;;;;;10.32;100.00;97433.81;4105001;28;20230;-46
2023/12/11 06:18:59;;;;;;;0.68;0.65;;;;;;;10.35;100.00;97430.53;4091126;28;20211;-47
2023/12/11 06:21:01;;;;;;;0.88;0.88;;;;;;;10.33;100.00;97435.44;4089847;28;20590;-45
2023/12/11 06:23:04;;;;;;;1.33;1.23;;;;;;;10.35;100.00;97433.28;4101923;28;20210;-45
2023/12/11 06:25:06;;;;;;;1.17;0.80;;;;;;;10.34;100.00;97417.97;4089034;28;20566;-45
2023/12/11 06:27:08;;;;;;;3.95;0.80;;;;;;;10.30;100.00;97433.25;4081813;28;20250;-45
2023/12/11 06:29:10;;;;;;;0.55;0.55;;;;;;;10.29;100.00;97420.69;4088994;28;20212;-45
2023/12/11 06:31:12;;;;;;;0.70;0.70;;;;;;;10.27;100.00;97417.44;4100421;28;20218;-45
2023/12/11 06:33:13;;;;;;;1.52;1.40;;;;;;;10.26;100.00;97421.22;4104642;28;20215;-45
2023/12/11 06:35:15;;;;;;;0.60;0.60;;;;;;;10.23;100.00;97410.84;4102507;28;20320;-46
2023/12/11 06:37:17;;;;;;;0.90;0.90;;;;;;;10.23;100.00;97405.38;4093326;28;20250;-46
2023/12/11 06:39:19;;;;;;;0.77;0.77;;;;;;;10.19;100.00;97404.28;4088965;28;20227;-45
2023/12/11 06:41:21;;;;;;;1.77;0.98;;;;;;;10.19;100.00;97409.75;4102849;28;20788;-45
2023/12/11 06:43:23;;;;;;;1.85;1.75;;;;;;;10.16;100.00;97399.38;4085817;28;20279;-44
2023/12/11 06:45:24;;;;;;;5.53;1.13;;;;;;;10.15;100.00;97397.75;4101074;28;20298;-45
2023/12/11 06:47:26;;;;;;;1.00;1.00;;;;;;;10.19;100.00;97387.88;4104967;28;20229;-45
2023/12/11 06:49:28;;;;;;;0.75;0.75;;;;;;;10.17;100.00;97390.09;4102951;28;20207;-45
2023/12/11 06:51:30;;;;;;;1.00;1.00;;;;;;;10.12;100.00;97388.19;4100607;28;20262;-45
2023/12/11 06:53:32;;;;;;;2.60;0.88;;;;;;;10.14;100.00;97399.66;4085446;28;21008;-46
2023/12/11 06:55:35;;;;;;;1.75;0.77;;;;;;;10.22;100.00;97387.34;4105055;28;20218;-45
2023/12/11 06:57:37;;;;;;;6.70;0.82;;;;;;;10.21;100.00;97393.91;4100035;28;20662;-45
2023/12/11 06:59:39;;;;;;;1.60;0.82;;;;;;;10.06;100.00;97388.44;4105494;28;20233;-45
2023/12/11 07:01:41;;;;;;;1.05;1.05;;;;;;;10.03;100.00;97383.50;4100528;28;20223;-45
2023/12/11 07:03:45;;;;;;;3.60;0.73;;;;;;;10.06;100.00;97382.97;4090230;28;20670;-45
2023/12/11 07:05:47;;;;;;;2.83;0.95;;;;;;;10.02;100.00;97381.88;4103619;28;20285;-44
2023/12/11 07:07:49;;;;;;;11.13;1.15;;;;;;;10.02;100.00;97374.47;4100900;28;20384;-46
2023/12/11 07:09:51;;;;;;;2.25;2.05;;;;;;;10.04;100.00;97382.44;4070243;28;20659;-46
2023/12/11 07:11:53;;;;;;;0.85;0.85;;;;;;;10.00;100.00;97379.41;4085349;28;20212;-45
2023/12/11 07:13:55;;;;;;;0.77;0.77;;;;;;;9.93;100.00;97388.97;4085498;28;20225;-46
2023/12/11 07:15:57;;;;;;;1.20;1.00;;;;;;;9.88;100.00;97395.25;4104317;28;20688;-45
2023/12/11 07:17:59;;;;;;;0.70;0.70;;;;;;;9.87;100.00;97388.16;4090863;28;20255;-45
2023/12/11 07:20:01;;;;;;;3.10;0.70;;;;;;;9.88;100.00;97386.25;4086938;28;20214;-45
2023/12/11 07:22:03;;;;;;;1.10;1.10;;;;;;;9.84;100.00;97390.59;4084626;28;20273;-45
2023/12/11 07:24:05;;;;;;;0.88;0.85;;;;;;;9.83;100.00;97375.31;4087098;28;20223;-47
2023/12/11 07:26:10;;;;;;;1.98;0.80;;;;;;;9.90;100.00;97373.13;4087995;28;20270;-45
2023/12/11 07:28:12;;;;;;;4.82;1.48;;;;;;;9.84;100.00;97390.59;4099953;28;20665;-46
2023/12/11 07:30:14;;;;;;;0.70;0.70;;;;;;;9.76;100.00;97383.75;4085875;28;20212;-44
2023/12/11 07:32:16;;;;;;;1.45;1.00;;;;;;;9.83;100.00;97388.97;4087404;28;20310;-45
2023/12/11 07:34:21;;;;;;;1.58;0.70;;;;;;;9.76;100.00;97388.41;4099933;28;20211;-45
2023/12/11 07:36:24;;;;;;;1.15;1.15;;;;;;;9.75;100.00;97392.25;4086282;28;20267;-46
2023/12/11 07:38:25;;;;;;;2.15;2.05;;;;;;;9.75;100.00;97394.97;4102417;28;20762;-45
2023/12/11 07:40:27;;;;;;;1.05;1.05;;;;;;;9.74;100.00;97393.34;4087272;28;20677;-45
2023/12/11 07:42:29;;;;;;;1.35;1.20;;;;;;;9.72;100.00;97398.25;4086246;28;20212;-45
2023/12/11 07:44:31;;;;;;;1.13;1.02;;;;;;;9.76;100.00;97410.28;4090350;28;20207;-47
2023/12/11 07:46:32;;;;;;;1.00;1.00;;;;;;;9.77;100.00;97400.97;4102010;28;20227;-45
2023/12/11 07:48:34;;;;;;;2.65;1.13;;;;;;;9.71;100.00;97397.44;4085858;28;20224;-45
2023/12/11 07:50:36;;;;;;;1.65;1.45;;;;;;;9.70;100.00;97394.97;4087791;28;20216;-45
2023/12/11 07:52:38;;;;;;;2.50;1.55;;;;;;;9.63;100.00;97395.22;4105071;28;20719;-46
2023/12/11 07:54:39;;;;;;;1.48;1.38;;;;;;;9.63;100.00;97403.41;4104983;28;20277;-46
2023/12/11 07:56:41;;;;;;;2.70;2.33;;;;;;;9.63;100.00;97410.81;4107524;28;20337;-46
2023/12/11 07:58:43;;;;;;;1.15;0.98;;;;;;;9.64;100.00;97417.91;4093543;28;20674;-45
2023/12/11 08:00:45;;;;;;;1.40;1.40;;;;;;;9.67;100.00;97422.84;4091227;28;20211;-45
2023/12/11 08:02:47;;;;;;;1.98;1.52;;;;;;;9.66;100.00;97432.09;4107775;28;20218;-46
2023/12/11 08:04:49;;;;;;;2.70;1.40;;;;;;;9.66;100.00;97432.94;4104907;28;20215;-45
2023/12/11 08:06:51;;;;;;;1.42;1.33;;;;;;;9.73;100.00;97416.25;4091219;28;20219;-46
2023/12/11 08:08:53;;;;;;;1.08;1.08;;;;;;;9.72;100.00;97431.03;4103403;28;20273;-45
2023/12/11 08:10:54;;;;;;;1.58;0.80;;;;;;;9.79;100.00;97437.03;4106251;28;20966;-45
2023/12/11 08:12:56;;;;;;;1.65;0.85;;;;;;;9.83;100.00;97435.41;4103496;28;20242;-46
2023/12/11 08:14:58;;;;;;;3.22;1.08;;;;;;;9.89;100.00;97437.06;4091103;28;20242;-46
2023/12/11 08:17:00;;;;;;;0.70;0.70;;;;;;;9.87;100.00;97422.88;4091790;28;20761;-46
2023/12/11 08:19:02;;;;;;;1.02;1.02;;;;;;;9.86;100.00;97421.19;4104288;28;20492;-45
2023/12/11 08:21:04;;;;;;;2.90;1.45;;;;;;;9.98;100.00;97419.03;4104916;28;20322;-46
2023/12/11 08:23:06;;;;;;;1.20;1.10;;;;;;;9.96;100.00;97410.28;4092569;28;20219;-44
2023/12/11 08:25:12;;;;;;;1.55;1.45;;;;;;;10.01;100.00;97440.34;4087095;28;20234;-45
2023/12/11 08:27:21;;;;;;;1.52;1.00;;;;;;;10.08;100.00;97408.13;4087958;28;20342;-45
2023/12/11 08:29:34;;;;;;;3.20;1.23;;;;;;;10.09;100.00;97405.09;4109342;28;20211;-45
2023/12/11 08:31:36;;;;;;;3.72;0.80;;;;;;;10.10;100.00;97416.88;4090622;28;20212;-45
2023/12/11 08:33:38;;;;;;;6.57;1.02;;;;;;;10.10;100.00;97417.72;4089227;28;20229;-45
2023/12/11 08:35:46;;;;;;;1.10;0.70;;;;;;;10.14;100.00;97413.31;4091186;28;20636;-45
2023/12/11 08:38:05;;;;;;;1.05;1.05;;;;;;;10.15;100.00;97414.94;4107527;28;20329;-45
2023/12/11 08:40:20;;;;;;;1.52;1.05;;;;;;;10.23;100.00;97411.69;4106175;28;20211;-45
2023/12/11 08:42:42;;;;;;;1.65;1.55;;;;;;;10.30;100.00;97404.03;4090225;28;20208;-45
2023/12/11 08:44:44;;;;;;;0.77;0.57;;;;;;;10.28;100.00;97403.47;4106865;28;20248;-45
2023/12/11 08:46:59;;;;;;;1.00;1.00;;;;;;;10.33;100.00;97416.28;4107914;28;20223;-45
2023/12/11 08:49:07;;;;;;;3.58;1.17;;;;;;;10.30;100.00;97422.34;4107164;28;20201;-45
2023/12/11 08:51:09;;;;;;;5.43;0.90;;;;;;;10.38;100.00;97416.31;4091625;28;20212;-45
2023/12/11 08:53:14;;;;;;;5.25;0.88;;;;;;;10.47;100.00;97417.41;4096701;28;20218;-46
2023/12/11 08:55:30;;;;;;;2.67;1.38;;;;;;;10.53;100.00;97429.94;4092621;28;20257;-45
2023/12/11 08:57:33;;;;;;;0.50;0.50;;;;;;;10.58;100.00;97424.47;4093655;28;20242;-45
2023/12/11 08:59:37;;;;;;;0.70;0.70;;;;;;;10.64;100.00;97426.09;4108504;28;20219;-44
2023/12/11 09:01:39;;;;;;;3.17;1.48;;;;;;;10.70;100.00;97423.09;4091722;28;20215;-45
2023/12/11 09:03:44;;;;;;;1.10;1.10;;;;;;;10.77;100.00;97425.53;4093072;28;20713;-45
2023/12/11 09:05:46;;;;;;;0.40;0.40;;;;;;;10.76;100.00;97426.63;4103556;28;20226;-45
2023/12/11 09:07:49;;;;;;;1.95;1.02;;;;;;;10.77;100.00;97429.91;4106846;28;20673;-45
2023/12/11 09:09:51;;;;;;;3.60;1.05;;;;;;;10.73;100.00;97438.09;4106656;28;20216;-45
2023/12/11 09:11:53;;;;;;;4.78;1.75;;;;;;;10.68;100.00;97447.16;4108160;28;20293;-45
2023/12/11 09:13:55;;;;;;;21.63;2.17;;;;;;;10.67;100.00;97444.72;4105733;28;20305;-45
2023/12/11 09:15:57;;;;;;;4.82;1.95;;;;;;;10.70;100.00;97452.34;4106203;28;20798;-45
2023/12/11 09:17:59;;;;;;;3.22;1.27;;;;;;;10.64;100.00;97439.78;4106700;28;20226;-44
2023/12/11 09:20:04;;;;;;;0.85;0.85;;;;;;;10.58;100.00;97449.09;4106365;28;20345;-46
2023/12/11 09:22:07;;;;;;;2.15;1.58;;;;;;;10.51;100.00;97456.75;4098265;28;20239;-45
2023/12/11 09:24:13;;;;;;;0.98;0.88;;;;;;;10.46;100.00;97448.56;4106201;28;20204;-46
2023/12/11 09:26:15;;;;;;;1.00;0.98;;;;;;;10.45;100.00;97457.84;4089839;28;20319;-46
2023/12/11 09:28:17;;;;;;;1.98;1.80;;;;;;;10.39;100.00;97450.75;4088178;28;20657;-45
2023/12/11 09:30:20;;;;;;;4.30;1.52;;;;;;;10.40;100.00;97463.31;4094444;28;20219;-45
2023/12/11 09:32:22;;;;;;;6.35;1.77;;;;;;;10.41;100.00;97456.78;4088043;28;20279;-44
2023/12/11 09:34:24;;;;;;;2.20;0.88;;;;;;;10.45;100.00;97463.31;4106284;28;20262;-45